CheckWX is a tool to help pilots better visualize weather data.  It is not intended as a substitute for an official pre-flight weather briefing.

03:13:00 UTC

N38 METAR
Wellsboro Johnston Airport
Wellsboro, Pennsylvania, USA
Current

18 mins ago

KN38 160255Z AUTO 30009KT 10SM FEW025 OVC035 M03/M07 A3009 RMK AO2
Observed
Dec-16 @ 02:55 UTC
Wind
  • 300° at 9 KTS
Visibility
10 SM
Flight Rules
VFR
Cloud Levels
  • Few at 2,500' AGL
  • Overcast at 3,500' AGL
Temperature
-3°C / 27°F
Dewpoint
-7°C / 19°F
Humidity
74%
Altimeter
30.09" Hg
Pressure
1018.92 hPa
Previous

38 mins ago

KN38 160235Z AUTO 27009KT 10SM FEW025 OVC035 M03/M07 A3008 RMK AO2
Observed
Dec-16 @ 02:35 UTC
Wind
  • 270° at 9 KTS
Visibility
10 SM
Flight Rules
VFR
Cloud Levels
  • Few at 2,500' AGL
  • Overcast at 3,500' AGL
Temperature
-3°C / 27°F
Dewpoint
-7°C / 19°F
Humidity
74%
Altimeter
30.08" Hg
Pressure
1018.62 hPa
Previous

58 mins ago

KN38 160215Z AUTO 28008KT 250V310 10SM SCT024 OVC035 M03/M07 A3007 RMK AO2
Observed
Dec-16 @ 02:15 UTC
Wind
  • 280° at 8 KTS
Visibility
10 SM
Flight Rules
VFR
Cloud Levels
  • Scattered at 2,400' AGL
  • Overcast at 3,500' AGL
Temperature
-3°C / 27°F
Dewpoint
-7°C / 19°F
Humidity
74%
Altimeter
30.07" Hg
Pressure
1018.32 hPa